Biotrans — JWPN — position and weather

sailwx.info

Track history (hours):
 
Tides and Currents Weather Stations Pressure Air Temp Water Temp Dewpoint Dewpoint Depression Visibility Wind Speed Wind Dir Waves Ship Positions

Biotrans

Last reported at 2017-May-01 00:00 UTC. Time now 2017-May-01 00:26 UTC.
Position N 63°53' E 009°48'.

Length 55 m; draft 5.5 m.

Type: Cargo ship. MMSI: 259260000.

Date/timePositionNaut miles runAvg speedWind from/ knotsBaromVisibWave heightAir tempDewpointWater temp
2017-May-01 00:00N 63°53' E 009°48'2 3.8
2017-Apr-30 23:30N 63°53' E 009°52'0 0.0
2017-Apr-30 23:00N 63°53' E 009°52'0 0.0
2017-Apr-30 22:30N 63°53' E 009°52'0 0.0
2017-Apr-30 22:00N 63°53' E 009°52'0 0.0
2017-Apr-30 21:30N 63°53' E 009°52'0 0.0
2017-Apr-30 21:00N 63°53' E 009°52'0 0.0
2017-Apr-30 20:30N 63°53' E 009°52'0 0.0
2017-Apr-30 20:00N 63°53' E 009°52'0 0.0
2017-Apr-30 19:30N 63°53' E 009°52'0 0.0
2017-Apr-30 19:00N 63°53' E 009°52'0 0.0
2017-Apr-30 18:30N 63°53' E 009°52'0 0.0
2017-Apr-30 18:00N 63°53' E 009°52'0 0.0
2017-Apr-30 17:30N 63°53' E 009°52'0 0.2
2017-Apr-30 17:00N 63°53' E 009°52'4 8.2
2017-Apr-30 16:30N 63°57' E 009°54'5 9.6
2017-Apr-30 16:00N 64°02' E 009°60'4 7.0
2017-Apr-30 15:30N 64°05' E 010°00'5 9.4
2017-Apr-30 15:00N 64°09' E 010°07'5 9.5
2017-Apr-30 14:30N 64°13' E 010°12'9 9.0
2017-Apr-30 13:30N 64°20' E 010°26'4 8.7
2017-Apr-30 13:00N 64°24' E 010°26'4 9.0
2017-Apr-30 12:30N 64°28' E 010°29'5 9.3
2017-Apr-30 12:00N 64°32' E 010°36'5 9.3
2017-Apr-30 11:30N 64°35' E 010°44'5 9.4
2017-Apr-30 11:00N 64°37' E 010°53'5 9.8
2017-Apr-30 10:30N 64°39' E 011°04'4 8.7
2017-Apr-30 10:00N 64°37' E 011°13'2 4.1
2017-Apr-30 09:30N 64°36' E 011°16'2 3.1
2017-Apr-30 09:00N 64°37' E 011°15'4 8.7
2017-Apr-30 08:30N 64°40' E 011°07'5 9.6
2017-Apr-30 08:00N 64°45' E 011°06'4 8.5
2017-Apr-30 07:30N 64°49' E 011°08'5 9.3
2017-Apr-30 07:00N 64°52' E 011°17'5 9.8
2017-Apr-30 06:30N 64°55' E 011°25'5 9.5
2017-Apr-30 06:00N 64°58' E 011°34'5 9.4
2017-Apr-30 05:30N 65°01' E 011°42'5 9.8
2017-Apr-30 05:00N 65°06' E 011°47'5 9.6
2017-Apr-30 04:30N 65°10' E 011°51'5 9.4
2017-Apr-30 04:00N 65°15' E 011°55'4 9.2
2017-Apr-30 03:30N 65°19' E 011°60'4 7.1
2017-Apr-30 03:00N 65°22' E 011°60'4 8.5
2017-Apr-30 02:30N 65°26' E 011°56'5 8.9
2017-Apr-30 02:00N 65°30' E 012°00'5 9.1
2017-Apr-30 01:29N 65°34' E 012°06'4 8.9
2017-Apr-30 01:00N 65°38' E 012°12'5 9.2
2017-Apr-30 00:30N 65°42' E 012°16'5 9.3
2017-Apr-30 00:00N 65°47' E 012°19'5 9.2
2017-Apr-29 23:30N 65°51' E 012°22'4 8.6
2017-Apr-29 23:00N 65°55' E 012°23'5 9.2
2017-Apr-29 22:30N 65°59' E 012°30'5 9.4
2017-Apr-29 22:00N 66°03' E 012°37'5 9.4
2017-Apr-29 21:30N 66°07' E 012°44'5 9.4
2017-Apr-29 21:00N 66°11' E 012°50'5 9.4
2017-Apr-29 20:30N 66°15' E 012°54'5 9.2
2017-Apr-29 20:00N 66°20' E 012°56'4 9.2
2017-Apr-29 19:30N 66°24' E 012°58'5 9.1
2017-Apr-29 19:00N 66°29' E 012°59'4 8.5
2017-Apr-29 18:30N 66°33' E 013°01'4 8.4
2017-Apr-29 17:59N 66°37' E 013°05'4 9.1
2017-Apr-29 17:30N 66°41' E 013°08'5 9.2
2017-Apr-29 17:00N 66°45' E 013°13'5 9.5
2017-Apr-29 16:30N 66°50' E 013°16'5 9.3
2017-Apr-29 16:00N 66°53' E 013°24'4 8.5
2017-Apr-29 15:30N 66°57' E 013°29'5 9.2
2017-Apr-29 15:00N 66°60' E 013°38'9 9.1
2017-Apr-29 14:00N 67°05' E 013°57'4 8.5
2017-Apr-29 13:30N 67°09' E 014°02'4 8.5
2017-Apr-29 13:00N 67°13' E 014°07'5 9.0
2017-Apr-29 12:30N 67°17' E 014°14'5 9.3
2017-Apr-29 12:00N 67°20' E 014°21'4 8.9
2017-Apr-29 11:30N 67°24' E 014°26'4 8.8
2017-Apr-29 11:00N 67°29' E 014°29'5 9.0
2017-Apr-29 10:30N 67°33' E 014°30'5 9.2
2017-Apr-29 10:00N 67°38' E 014°30'4 9.1
2017-Apr-29 09:30N 67°42' E 014°31'4 8.7
2017-Apr-29 09:00N 67°47' E 014°32'4 8.8
2017-Apr-29 08:30N 67°50' E 014°38'5 9.2
2017-Apr-29 08:00N 67°53' E 014°48'5 9.5
2017-Apr-29 07:30N 67°55' E 015°00'5 9.1
2017-Apr-29 06:59N 67°54' E 015°13'4 8.5
2017-Apr-29 06:30N 67°57' E 015°20'4 6.9
2017-Apr-29 06:00N 68°01' E 015°20'0 0.0
2017-Apr-29 05:30N 68°01' E 015°20'0 0.0
2017-Apr-29 05:00N 68°01' E 015°20'0 0.5
2017-Apr-29 04:30N 68°01' E 015°21'1 2.4
2017-Apr-29 03:59N 68°01' E 015°17'1 1.7
2017-Apr-29 03:30N 68°02' E 015°16'1 1.5
2017-Apr-29 03:00N 68°02' E 015°15'1 2.0
2017-Apr-29 02:30N 68°03' E 015°14'2 3.0
2017-Apr-29 02:00N 68°05' E 015°12'2 3.2
2017-Apr-29 01:30N 68°06' E 015°09'2 4.1
2017-Apr-29 01:00N 68°08' E 015°06'2 4.2
2017-Apr-29 00:30N 68°09' E 015°03'2 4.7
2017-Apr-29 00:00N 68°11' E 014°59'4 7.4
2017-Apr-28 23:30N 68°15' E 014°57'5 9.3
2017-Apr-28 23:00N 68°19' E 014°59'5 9.2
2017-Apr-28 22:30N 68°23' E 015°05'5 9.3
2017-Apr-28 22:00N 68°27' E 015°12'4 8.6
2017-Apr-28 21:30N 68°32' E 015°09'5 9.0
2017-Apr-28 21:00N 68°36' E 015°15'5 9.4
2017-Apr-28 20:30N 68°38' E 015°26'2 4.0
2017-Apr-28 20:00N 68°39' E 015°31'0 0.0
2017-Apr-28 19:30N 68°39' E 015°31'0 0.0
2017-Apr-28 19:00N 68°39' E 015°31'0 0.0
2017-Apr-28 18:30N 68°39' E 015°31'1 1.8
2017-Apr-28 18:00N 68°38' E 015°29'4 9.0
2017-Apr-28 17:30N 68°42' E 015°26'5 9.6
2017-Apr-28 17:00N 68°47' E 015°25'5 9.1
2017-Apr-28 16:30N 68°52' E 015°25'4 7.4
2017-Apr-28 16:00N 68°54' E 015°18'0 0.3
2017-Apr-28 15:30N 68°54' E 015°17'0 0.0
2017-Apr-28 15:00N 68°54' E 015°17'0 0.0
2017-Apr-28 14:00N 68°54' E 015°17'0 0.0
2017-Apr-28 13:30N 68°54' E 015°17'0 0.0
2017-Apr-28 13:00N 68°54' E 015°17'3 5.6
2017-Apr-28 12:30N 68°53' E 015°24'3 6.3
2017-Apr-28 12:00N 68°54' E 015°33'5 8.8
2017-Apr-28 11:30N 68°58' E 015°38'4 8.3
2017-Apr-28 11:00N 68°59' E 015°49'4 8.9
2017-Apr-28 10:30N 68°58' E 016°01'5 9.4
2017-Apr-28 10:00N 68°56' E 016°14'5 9.4
2017-Apr-28 09:30N 68°53' E 016°24'5 9.3
2017-Apr-28 09:00N 68°52' E 016°36'4 8.9
2017-Apr-28 08:30N 68°52' E 016°49'4 9.2
2017-Apr-28 08:00N 68°53' E 017°01'4 8.8
2017-Apr-28 07:30N 68°49' E 017°09'5 9.2
2017-Apr-28 07:00N 68°45' E 017°15'2 3.5
2017-Apr-28 06:30N 68°44' E 017°18'0 0.8
2017-Apr-28 06:01N 68°44' E 017°18'5 9.6
2017-Apr-28 05:30N 68°48' E 017°10'5 9.7
2017-Apr-28 05:00N 68°53' E 017°06'5 9.6
2017-Apr-28 04:30N 68°57' E 017°09'510.5
2017-Apr-28 04:00N 69°02' E 017°18'510.4
2017-Apr-28 03:30N 69°06' E 017°27'510.3
2017-Apr-28 03:00N 69°08' E 017°40'510.4
2017-Apr-28 02:30N 69°10' E 017°53'4 7.3
2017-Apr-28 02:00N 69°13' E 017°58'5 9.8
2017-Apr-28 01:30N 69°18' E 017°58'5 9.5
2017-Apr-28 01:00N 69°22' E 018°06'5 9.9
2017-Apr-28 00:30N 69°27' E 018°07'5 9.1
2017-Apr-28 00:00N 69°30' E 018°17'510.0
2017-Apr-27 23:30N 69°32' E 018°30'5 9.2
2017-Apr-27 23:00N 69°33' E 018°43'4 7.1
2017-Apr-27 22:30N 69°35' E 018°51'5 9.2
2017-Apr-27 22:00N 69°39' E 018°59'5 9.1
2017-Apr-27 21:30N 69°43' E 019°04'5 9.0
2017-Apr-27 21:00N 69°46' E 019°13'5 9.2
2017-Apr-27 20:30N 69°48' E 019°25'5 9.3
2017-Apr-27 20:00N 69°50' E 019°37'5 9.5
2017-Apr-27 19:30N 69°52' E 019°50'5 9.4
2017-Apr-27 19:00N 69°55' E 020°01'5 9.4
2017-Apr-27 18:30N 69°58' E 020°11'5 9.5
2017-Apr-27 17:59N 70°00' E 020°24'5 9.6
2017-Apr-27 17:29N 70°02' E 020°38'5 9.8
2017-Apr-27 17:00N 70°03' E 020°51'5 9.4
2017-Apr-27 16:30N 70°07' E 020°59'5 9.2
2017-Apr-27 16:00N 70°11' E 021°05'4 8.9
2017-Apr-27 15:30N 70°15' E 021°13'5 9.3
2017-Apr-27 15:00N 70°18' E 021°24'9 8.9
2017-Apr-27 14:00N 70°24' E 021°43'5 9.2
2017-Apr-27 13:30N 70°24' E 021°56'5 9.3
2017-Apr-27 12:59N 70°24' E 022°10'4 9.1
2017-Apr-27 12:30N 70°24' E 022°24'5 9.2
2017-Apr-27 12:00N 70°24' E 022°37'5 8.9
2017-Apr-27 11:29N 70°23' E 022°50'3 6.9
2017-Apr-27 11:00N 70°21' E 022°59'0 0.0
2017-Apr-27 10:30N 70°21' E 022°59'1 2.5
2017-Apr-27 09:59N 70°20' E 023°02'1 2.3
2017-Apr-27 09:29N 70°21' E 023°05'0 0.0
2017-Apr-27 09:00N 70°21' E 023°05'3 6.8
2017-Apr-27 08:30N 70°18' E 023°03'5 9.8
2017-Apr-27 08:00N 70°15' E 023°14'1 2.9
2017-Apr-27 07:30N 70°14' E 023°18'2 4.3
2017-Apr-27 07:00N 70°14' E 023°24'0 0.0
2017-Apr-27 06:30N 70°14' E 023°24'3 7.0
2017-Apr-27 06:00N 70°15' E 023°15'5 9.9
2017-Apr-27 05:29N 70°19' E 023°23'510.0
2017-Apr-27 04:59N 70°23' E 023°32'510.2
2017-Apr-27 04:30N 70°27' E 023°42'5 9.5
2017-Apr-27 04:00N 70°30' E 023°53'5 9.5
2017-Apr-27 03:29N 70°33' E 024°04'5 9.3
2017-Apr-27 03:00N 70°37' E 024°10'5 9.2
2017-Apr-27 02:30N 70°41' E 024°16'4 8.3
2017-Apr-27 02:00N 70°41' E 024°29'1 1.8
2017-Apr-27 01:29N 70°40' E 024°29'3 5.4
2017-Apr-27 00:59N 70°38' E 024°35'0 0.2
2017-Apr-27 00:30N 70°38' E 024°34'2 3.6
2017-Apr-27 00:00N 70°40' E 024°33'4 8.5
2017-Apr-26 23:30N 70°43' E 024°24'4 8.3
2017-Apr-26 23:00N 70°46' E 024°15'4 7.5
2017-Apr-26 22:30N 70°50' E 024°13'4 8.4
2017-Apr-26 22:00N 70°53' E 024°20'5 9.6
2017-Apr-26 21:30N 70°58' E 024°26'5 9.5
2017-Apr-26 21:00N 71°02' E 024°34'510.5
2017-Apr-26 20:30N 71°00' E 024°49'510.2
2017-Apr-26 20:00N 70°58' E 025°03'5 9.2
2017-Apr-26 19:30N 70°53' E 024°57'0 0.4
2017-Apr-26 18:38N 70°53' E 024°56'1 3.5
2017-Apr-26 18:29N 70°53' E 024°58'5 9.4
2017-Apr-26 18:00N 70°57' E 025°07'5 9.6
2017-Apr-26 17:30N 70°59' E 025°20'611.6
2017-Apr-26 17:00N 70°55' E 025°33'4 7.4
2017-Apr-26 16:30N 70°52' E 025°27'0 0.0
2017-Apr-26 16:00N 70°52' E 025°27'3 5.8
2017-Apr-26 15:30N 70°54' E 025°34'0 0.1
2017-Apr-26 15:00N 70°54' E 025°34'0 0.3
2017-Apr-26 14:30N 70°54' E 025°34'0 0.0
2017-Apr-26 13:30N 70°54' E 025°34'0 0.2
2017-Apr-26 13:00N 70°54' E 025°34'0 0.0
2017-Apr-26 12:30N 70°54' E 025°34'0 0.0
2017-Apr-26 12:00N 70°54' E 025°34'0 0.0
2017-Apr-26 11:30N 70°54' E 025°34'0 0.0
2017-Apr-26 11:00N 70°54' E 025°34'0 0.0
2017-Apr-26 10:29N 70°54' E 025°34'2 4.6
2017-Apr-26 10:00N 70°56' E 025°32'510.1
2017-Apr-26 09:30N 70°59' E 025°20'5 9.3
2017-Apr-26 09:00N 70°59' E 025°05'4 8.9
2017-Apr-26 08:29N 71°00' E 024°52'4 8.7
2017-Apr-26 08:00N 71°01' E 024°39'4 7.8
2017-Apr-26 07:30N 71°00' E 024°27'4 9.0
2017-Apr-26 07:00N 70°57' E 024°17'4 8.3
2017-Apr-26 06:30N 70°54' E 024°08'5 9.2
2017-Apr-26 06:00N 70°51' E 023°58'5 9.4
2017-Apr-26 05:30N 70°48' E 023°48'5 9.6
2017-Apr-26 05:00N 70°44' E 023°37'5 9.6
2017-Apr-26 04:30N 70°41' E 023°27'5 9.6
2017-Apr-26 04:00N 70°37' E 023°19'5 9.3
2017-Apr-26 03:30N 70°33' E 023°14'1 2.0
2017-Apr-26 02:59N 70°32' E 023°14'1 1.3
2017-Apr-26 02:30N 70°32' E 023°14'4 8.4
2017-Apr-26 02:00N 70°32' E 023°01'510.2
2017-Apr-26 01:30N 70°30' E 022°47'5 9.9
2017-Apr-26 01:00N 70°29' E 022°33'5 9.6
2017-Apr-26 00:30N 70°27' E 022°19'510.2
2017-Apr-26 00:00N 70°26' E 022°04'5 9.9
2017-Apr-25 23:30N 70°25' E 021°50'510.0
2017-Apr-25 23:00N 70°22' E 021°37'510.1
2017-Apr-25 22:30N 70°19' E 021°26'510.0
2017-Apr-25 22:00N 70°15' E 021°15'4 8.6
2017-Apr-25 21:30N 70°11' E 021°10'5 9.5
2017-Apr-25 21:00N 70°07' E 021°16'5 9.4
2017-Apr-25 20:29N 70°03' E 021°25'5 9.7
2017-Apr-25 20:00N 70°00' E 021°34'5 9.7
2017-Apr-25 19:29N 69°57' E 021°45'4 3.5
2017-Apr-25 18:26N 69°54' E 021°53'4 8.8
2017-Apr-25 18:00N 69°57' E 021°45'5 9.5
2017-Apr-25 17:29N 70°00' E 021°34'5 9.4
2017-Apr-25 17:00N 70°03' E 021°25'4 7.5
2017-Apr-25 16:30N 70°06' E 021°17'5 9.7
2017-Apr-25 16:00N 70°02' E 021°26'510.0
2017-Apr-25 15:30N 69°58' E 021°34'6 2.7
2017-Apr-25 13:26N 69°54' E 021°44'4 9.2
2017-Apr-25 13:00N 69°56' E 021°36'5 9.4
2017-Apr-25 12:30N 70°00' E 021°29'5 9.5
2017-Apr-25 11:59N 70°03' E 021°18'5 9.6
2017-Apr-25 11:30N 70°04' E 021°04'510.1
2017-Apr-25 11:00N 70°03' E 020°50'510.4
2017-Apr-25 10:30N 70°01' E 020°34'510.1
2017-Apr-25 10:00N 70°02' E 020°20'510.0
2017-Apr-25 09:30N 70°02' E 020°06'510.3
2017-Apr-25 09:00N 70°03' E 019°50'510.1
2017-Apr-25 08:30N 70°04' E 019°36'510.4
2017-Apr-25 08:00N 70°05' E 019°21'511.0
2017-Apr-25 07:30N 70°05' E 019°05'611.1
2017-Apr-25 07:00N 70°02' E 018°52'510.8
2017-Apr-25 06:30N 69°58' E 018°42'5 9.9
2017-Apr-25 06:00N 69°55' E 018°31'1 2.1
2017-Apr-25 05:30N 69°54' E 018°29'0 0.0
2017-Apr-25 05:00N 69°54' E 018°29'0 0.0
2017-Apr-25 04:30N 69°54' E 018°29'0 0.0
2017-Apr-25 04:00N 69°54' E 018°29'0 0.0
2017-Apr-25 03:30N 69°54' E 018°29'0 0.0
2017-Apr-25 03:00N 69°54' E 018°29'0 0.0
2017-Apr-25 02:30N 69°54' E 018°29'0 0.1
2017-Apr-25 02:00N 69°54' E 018°29'3 6.5
2017-Apr-25 01:30N 69°54' E 018°38'5 9.8
2017-Apr-25 00:59N 69°52' E 018°51'611.4
2017-Apr-25 00:30N 69°48' E 019°02'510.0
2017-Apr-25 00:00N 69°43' E 019°03'5 9.4
2017-Apr-24 23:30N 69°39' E 018°58'5 9.5
2017-Apr-24 23:00N 69°35' E 018°49'5 9.7
2017-Apr-24 22:30N 69°33' E 018°37'510.0
2017-Apr-24 22:00N 69°31' E 018°24'5 9.7
2017-Apr-24 21:30N 69°29' E 018°11'4 8.9
2017-Apr-24 21:00N 69°25' E 018°07'4 9.1
2017-Apr-24 20:30N 69°20' E 018°03'5 9.1
2017-Apr-24 20:00N 69°16' E 017°58'5 9.3
2017-Apr-24 19:30N 69°12' E 018°01'5 9.4
2017-Apr-24 19:00N 69°09' E 017°50'5 9.3
2017-Apr-24 18:30N 69°07' E 017°39'3 6.4
2017-Apr-24 18:00N 69°05' E 017°31'0 0.0
2017-Apr-24 17:30N 69°05' E 017°31'0 0.0
2017-Apr-24 17:00N 69°05' E 017°31'0 0.0
2017-Apr-24 16:30N 69°05' E 017°31'2 4.0
2017-Apr-24 16:00N 69°05' E 017°25'5 9.3
2017-Apr-24 15:30N 69°01' E 017°18'5 9.4
2017-Apr-24 15:00N 68°58' E 017°10'4 8.5
2017-Apr-24 14:30N 68°53' E 017°06'0 0.3
2017-Apr-24 13:30N 68°54' E 017°07'0 0.0
2017-Apr-24 13:00N 68°54' E 017°07'1 1.0
2017-Apr-24 12:30N 68°54' E 017°05'5 9.7
2017-Apr-24 12:00N 68°52' E 016°53'510.0
2017-Apr-24 11:30N 68°50' E 016°41'3 6.4
2017-Apr-24 11:00N 68°48' E 016°34'0 0.0
2017-Apr-24 10:29N 68°48' E 016°34'0 0.0
2017-Apr-24 10:00N 68°48' E 016°34'0 0.0
2017-Apr-24 09:30N 68°48' E 016°34'0 0.9
2017-Apr-24 09:00N 68°48' E 016°33'0 0.0
2017-Apr-24 08:30N 68°48' E 016°33'0 0.0
2017-Apr-24 08:01N 68°48' E 016°33'0 0.0
2017-Apr-24 07:30N 68°48' E 016°33'0 0.0
2017-Apr-24 07:00N 68°48' E 016°33'0 0.0
2017-Apr-24 06:30N 68°48' E 016°33'0 0.0
2017-Apr-24 06:00N 68°48' E 016°33'0 0.0
2017-Apr-24 05:30N 68°48' E 016°33'0 0.0
2017-Apr-24 05:00N 68°48' E 016°33'0 0.0
2017-Apr-24 04:30N 68°48' E 016°33'0 0.0
2017-Apr-24 04:00N 68°48' E 016°33'0 0.0
2017-Apr-24 03:30N 68°48' E 016°33'0 0.0
2017-Apr-24 03:00N 68°48' E 016°33'0 0.0
2017-Apr-24 02:30N 68°48' E 016°33'0 0.0
2017-Apr-24 02:00N 68°48' E 016°33'0 0.0
2017-Apr-24 01:29N 68°48' E 016°33'0 0.0
2017-Apr-24 01:00N 68°48' E 016°33'0 0.0
2017-Apr-24 00:30N 68°48' E 016°33'2 4.3
2017-Apr-24 00:00N 68°47' E 016°38'5 9.5
2017-Apr-23 23:30N 68°42' E 016°40'510.5
2017-Apr-23 23:00N 68°38' E 016°35'510.5
2017-Apr-23 22:30N 68°33' E 016°28'510.1
2017-Apr-23 22:00N 68°33' E 016°14'5 9.8
2017-Apr-23 21:30N 68°29' E 016°07'5 9.8
2017-Apr-23 21:00N 68°24' E 016°01'5 9.2
2017-Apr-23 20:30N 68°20' E 015°54'5 9.3
2017-Apr-23 20:00N 68°17' E 015°45'5 9.4
2017-Apr-23 19:30N 68°14' E 015°36'5 9.6
2017-Apr-23 19:00N 68°10' E 015°27'5 9.3
2017-Apr-23 18:30N 68°07' E 015°19'5 9.4
2017-Apr-23 18:00N 68°02' E 015°16'2 4.0
2017-Apr-23 17:30N 68°01' E 015°20'0 0.0
2017-Apr-23 17:00N 68°01' E 015°20'1 2.2
2017-Apr-23 16:30N 68°01' E 015°17'4 7.9
2017-Apr-23 16:00N 68°02' E 015°08'5 9.7
2017-Apr-23 15:30N 67°60' E 014°57'5 9.9
2017-Apr-23 15:00N 67°56' E 014°47'10 9.4
2017-Apr-23 14:00N 67°48' E 014°33'5 9.7
2017-Apr-23 13:30N 67°44' E 014°31'5 9.8
2017-Apr-23 13:00N 67°39' E 014°31'5 9.9
2017-Apr-23 12:30N 67°34' E 014°30'5 9.9
2017-Apr-23 12:01N 67°29' E 014°29'5 9.9
2017-Apr-23 11:30N 67°24' E 014°27'5 9.9
2017-Apr-23 11:00N 67°20' E 014°20'5 9.9
2017-Apr-23 10:30N 67°16' E 014°12'5 9.8
2017-Apr-23 10:00N 67°12' E 014°06'510.1
2017-Apr-23 09:30N 67°07' E 014°00'2 4.7
2017-Apr-23 09:00N 67°07' E 013°54'1 2.8
2017-Apr-23 08:30N 67°06' E 013°56'510.1
2017-Apr-23 08:00N 67°02' E 013°48'510.3
2017-Apr-23 07:30N 66°59' E 013°37'5 9.3
2017-Apr-23 07:00N 66°56' E 013°29'5 9.9
2017-Apr-23 06:30N 66°52' E 013°21'5 9.9
2017-Apr-23 06:00N 66°48' E 013°15'510.3
2017-Apr-23 05:30N 66°43' E 013°10'510.1
2017-Apr-23 05:00N 66°38' E 013°06'5 9.7
2017-Apr-23 04:30N 66°33' E 013°03'4 8.2
2017-Apr-23 04:00N 66°30' E 012°59'510.0
2017-Apr-23 03:30N 66°25' E 012°59'510.1
2017-Apr-23 03:00N 66°20' E 012°57'510.0
2017-Apr-23 02:30N 66°15' E 012°54'510.2
2017-Apr-23 02:00N 66°10' E 012°50'510.2
2017-Apr-23 01:30N 66°06' E 012°42'510.4
2017-Apr-23 01:00N 66°02' E 012°34'510.2
2017-Apr-23 00:30N 65°58' E 012°27'5 9.6
2017-Apr-23 00:00N 65°53' E 012°22'510.0
2017-Apr-22 23:30N 65°48' E 012°20'510.2
2017-Apr-22 23:00N 65°43' E 012°16'510.0
2017-Apr-22 22:30N 65°39' E 012°13'5 9.8
2017-Apr-22 22:00N 65°34' E 012°06'510.0
2017-Apr-22 21:30N 65°30' E 012°00'5 9.7
2017-Apr-22 21:00N 65°26' E 011°56'5 9.2
2017-Apr-22 20:30N 65°22' E 012°02'4 9.0
2017-Apr-22 20:00N 65°18' E 011°59'510.0
2017-Apr-22 19:30N 65°13' E 011°54'510.1
2017-Apr-22 19:00N 65°08' E 011°50'510.3
2017-Apr-22 18:30N 65°04' E 011°45'510.2
2017-Apr-22 18:00N 64°60' E 011°37'510.2
2017-Apr-22 17:30N 64°56' E 011°28'510.5
2017-Apr-22 17:00N 64°53' E 011°18'510.0
2017-Apr-22 16:30N 64°50' E 011°10'5 9.4
2017-Apr-22 16:00N 64°46' E 011°02'510.0
2017-Apr-22 15:30N 64°43' E 010°54'5 9.7
2017-Apr-22 15:00N 64°40' E 010°45'5 9.9
2017-Apr-22 14:30N 64°35' E 010°39'10 9.8
2017-Apr-22 13:30N 64°27' E 010°27'5 9.5
2017-Apr-22 13:00N 64°22' E 010°28'4 8.9
2017-Apr-22 12:30N 64°18' E 010°23'4 8.7
2017-Apr-22 12:00N 64°15' E 010°17'5 9.4
2017-Apr-22 11:30N 64°11' E 010°10'5 9.6
2017-Apr-22 11:00N 64°07' E 010°04'4 7.7
2017-Apr-22 10:29N 64°03' E 010°03'4 8.4
2017-Apr-22 10:00N 64°00' E 009°57'4 8.8
2017-Apr-22 09:30N 63°56' E 009°54'3 5.8
2017-Apr-22 09:00N 63°53' E 009°52'0 0.0
2017-Apr-22 08:29N 63°53' E 009°52'0 0.0
2017-Apr-22 08:00N 63°53' E 009°52'0 0.0
2017-Apr-22 07:30N 63°53' E 009°52'0 0.0
2017-Apr-22 06:59N 63°53' E 009°52'0 0.7
2017-Apr-22 06:30N 63°54' E 009°53'3 6.5
2017-Apr-22 06:00N 63°53' E 009°46'4 8.0
2017-Apr-22 05:30N 63°50' E 009°38'4 8.2
2017-Apr-22 05:00N 63°47' E 009°33'3 6.2
2017-Apr-22 04:30N 63°45' E 009°38'3 6.6
2017-Apr-22 04:01N 63°46' E 009°45'0 0.3
2017-Apr-22 03:30N 63°46' E 009°46'0 0.0
2017-Apr-22 03:00N 63°46' E 009°46'0 0.0
2017-Apr-22 02:30N 63°46' E 009°46'0 0.0
2017-Apr-22 02:00N 63°46' E 009°46'0 0.0
2017-Apr-22 01:30N 63°46' E 009°46'0 0.0
2017-Apr-22 01:00N 63°46' E 009°46'0 0.0
2017-Apr-22 00:30N 63°46' E 009°46'0 0.0
2017-Apr-22 00:00N 63°46' E 009°46'0 0.0
2017-Apr-21 23:30N 63°46' E 009°46'0 0.0
2017-Apr-21 23:00N 63°46' E 009°46'0 0.0
2017-Apr-21 22:30N 63°46' E 009°46'0 0.0
2017-Apr-21 22:00N 63°46' E 009°46'4 7.1
2017-Apr-21 21:30N 63°45' E 009°38'3 6.9
2017-Apr-21 21:00N 63°48' E 009°34'5 9.4
2017-Apr-21 20:30N 63°52' E 009°41'5 9.5
2017-Apr-21 20:00N 63°55' E 009°47'5 9.7
2017-Apr-21 19:30N 63°59' E 009°55'5 9.7
2017-Apr-21 19:00N 64°03' E 010°02'4 7.4
2017-Apr-21 18:29N 64°07' E 010°02'5 9.3
2017-Apr-21 18:00N 64°10' E 010°08'5 9.4
2017-Apr-21 17:30N 64°14' E 010°15'4 8.4
2017-Apr-21 17:00N 64°17' E 010°20'4 8.8
2017-Apr-21 16:30N 64°21' E 010°26'4 8.6
2017-Apr-21 16:00N 64°25' E 010°27'4 8.8
2017-Apr-21 15:30N 64°30' E 010°27'4 7.4
2017-Apr-21 15:00N 64°32' E 010°33'4 7.9
2017-Apr-21 14:30N 64°35' E 010°39'8 8.1
2017-Apr-21 13:30N 64°42' E 010°50'4 8.1
2017-Apr-21 13:00N 64°44' E 010°58'4 8.8
2017-Apr-21 12:30N 64°47' E 011°05'5 9.1
2017-Apr-21 12:00N 64°51' E 011°12'1 2.6
2017-Apr-21 11:30N 64°52' E 011°14'0 0.0
2017-Apr-21 11:00N 64°52' E 011°14'0 0.0
2017-Apr-21 10:30N 64°52' E 011°14'0 0.0
2017-Apr-21 10:00N 64°52' E 011°14'0 0.0
2017-Apr-21 09:30N 64°52' E 011°14'0 0.0
2017-Apr-21 09:00N 64°52' E 011°14'0 0.0
2017-Apr-21 08:30N 64°52' E 011°14'0 0.0
2017-Apr-21 08:00N 64°52' E 011°14'0 0.0
2017-Apr-21 07:30N 64°52' E 011°14'0 0.0
2017-Apr-21 07:00N 64°52' E 011°14'0 0.0
2017-Apr-21 06:30N 64°52' E 011°14'1 1.7
2017-Apr-21 06:00N 64°52' E 011°16'3 6.5
2017-Apr-21 05:30N 64°54' E 011°21'3 6.6
2017-Apr-21 05:00N 64°56' E 011°27'3 6.5
2017-Apr-21 04:30N 64°58' E 011°34'3 5.7
2017-Apr-21 04:00N 65°00' E 011°38'3 5.4
2017-Apr-21 03:30N 65°02' E 011°43'3 6.3
2017-Apr-21 03:00N 65°05' E 011°47'3 6.2
2017-Apr-21 02:30N 65°08' E 011°49'3 6.4
2017-Apr-21 02:00N 65°11' E 011°51'3 6.5
2017-Apr-21 01:30N 65°14' E 011°55'3 6.2
2017-Apr-21 01:00N 65°17' E 011°57'3 6.2
2017-Apr-21 00:30N 65°19' E 012°01'  
Track history (hours):
 
Tides and Currents Weather Stations Pressure Air Temp Water Temp Dewpoint Dewpoint Depression Visibility Wind Speed Wind Dir Waves Ship Positions

Biotrans

Last reported at 2017-May-01 00:00 UTC. Time now 2017-May-01 00:26 UTC.
Position N 63°53' E 009°48'.

Length 55 m; draft 5.5 m.

Type: Cargo ship. MMSI: 259260000.

Date/timePositionNaut miles runAvg speedWind from/ knotsBaromVisibWave heightAir tempDewpointWater temp
2017-May-01 00:00N 63°53' E 009°48'2 3.8
2017-Apr-30 23:30N 63°53' E 009°52'0 0.0
2017-Apr-30 23:00N 63°53' E 009°52'0 0.0
2017-Apr-30 22:30N 63°53' E 009°52'0 0.0
2017-Apr-30 22:00N 63°53' E 009°52'0 0.0
2017-Apr-30 21:30N 63°53' E 009°52'0 0.0
2017-Apr-30 21:00N 63°53' E 009°52'0 0.0
2017-Apr-30 20:30N 63°53' E 009°52'0 0.0
2017-Apr-30 20:00N 63°53' E 009°52'0 0.0
2017-Apr-30 19:30N 63°53' E 009°52'0 0.0
2017-Apr-30 19:00N 63°53' E 009°52'0 0.0
2017-Apr-30 18:30N 63°53' E 009°52'0 0.0
2017-Apr-30 18:00N 63°53' E 009°52'0 0.0
2017-Apr-30 17:30N 63°53' E 009°52'0 0.2
2017-Apr-30 17:00N 63°53' E 009°52'4 8.2
2017-Apr-30 16:30N 63°57' E 009°54'5 9.6
2017-Apr-30 16:00N 64°02' E 009°60'4 7.0
2017-Apr-30 15:30N 64°05' E 010°00'5 9.4
2017-Apr-30 15:00N 64°09' E 010°07'5 9.5
2017-Apr-30 14:30N 64°13' E 010°12'9 9.0
2017-Apr-30 13:30N 64°20' E 010°26'4 8.7
2017-Apr-30 13:00N 64°24' E 010°26'4 9.0
2017-Apr-30 12:30N 64°28' E 010°29'5 9.3
2017-Apr-30 12:00N 64°32' E 010°36'5 9.3
2017-Apr-30 11:30N 64°35' E 010°44'5 9.4
2017-Apr-30 11:00N 64°37' E 010°53'5 9.8
2017-Apr-30 10:30N 64°39' E 011°04'4 8.7
2017-Apr-30 10:00N 64°37' E 011°13'2 4.1
2017-Apr-30 09:30N 64°36' E 011°16'2 3.1
2017-Apr-30 09:00N 64°37' E 011°15'4 8.7
2017-Apr-30 08:30N 64°40' E 011°07'5 9.6
2017-Apr-30 08:00N 64°45' E 011°06'4 8.5
2017-Apr-30 07:30N 64°49' E 011°08'5 9.3
2017-Apr-30 07:00N 64°52' E 011°17'5 9.8
2017-Apr-30 06:30N 64°55' E 011°25'5 9.5
2017-Apr-30 06:00N 64°58' E 011°34'5 9.4
2017-Apr-30 05:30N 65°01' E 011°42'5 9.8
2017-Apr-30 05:00N 65°06' E 011°47'5 9.6
2017-Apr-30 04:30N 65°10' E 011°51'5 9.4
2017-Apr-30 04:00N 65°15' E 011°55'4 9.2
2017-Apr-30 03:30N 65°19' E 011°60'4 7.1
2017-Apr-30 03:00N 65°22' E 011°60'4 8.5
2017-Apr-30 02:30N 65°26' E 011°56'5 8.9
2017-Apr-30 02:00N 65°30' E 012°00'5 9.1
2017-Apr-30 01:29N 65°34' E 012°06'4 8.9
2017-Apr-30 01:00N 65°38' E 012°12'5 9.2
2017-Apr-30 00:30N 65°42' E 012°16'5 9.3
2017-Apr-30 00:00N 65°47' E 012°19'5 9.2
2017-Apr-29 23:30N 65°51' E 012°22'4 8.6
2017-Apr-29 23:00N 65°55' E 012°23'5 9.2
2017-Apr-29 22:30N 65°59' E 012°30'5 9.4
2017-Apr-29 22:00N 66°03' E 012°37'5 9.4
2017-Apr-29 21:30N 66°07' E 012°44'5 9.4
2017-Apr-29 21:00N 66°11' E 012°50'5 9.4
2017-Apr-29 20:30N 66°15' E 012°54'5 9.2
2017-Apr-29 20:00N 66°20' E 012°56'4 9.2
2017-Apr-29 19:30N 66°24' E 012°58'5 9.1
2017-Apr-29 19:00N 66°29' E 012°59'4 8.5
2017-Apr-29 18:30N 66°33' E 013°01'4 8.4
2017-Apr-29 17:59N 66°37' E 013°05'4 9.1
2017-Apr-29 17:30N 66°41' E 013°08'5 9.2
2017-Apr-29 17:00N 66°45' E 013°13'5 9.5
2017-Apr-29 16:30N 66°50' E 013°16'5 9.3
2017-Apr-29 16:00N 66°53' E 013°24'4 8.5
2017-Apr-29 15:30N 66°57' E 013°29'5 9.2
2017-Apr-29 15:00N 66°60' E 013°38'9 9.1
2017-Apr-29 14:00N 67°05' E 013°57'4 8.5
2017-Apr-29 13:30N 67°09' E 014°02'4 8.5
2017-Apr-29 13:00N 67°13' E 014°07'5 9.0
2017-Apr-29 12:30N 67°17' E 014°14'5 9.3
2017-Apr-29 12:00N 67°20' E 014°21'4 8.9
2017-Apr-29 11:30N 67°24' E 014°26'4 8.8
2017-Apr-29 11:00N 67°29' E 014°29'5 9.0
2017-Apr-29 10:30N 67°33' E 014°30'5 9.2
2017-Apr-29 10:00N 67°38' E 014°30'4 9.1
2017-Apr-29 09:30N 67°42' E 014°31'4 8.7
2017-Apr-29 09:00N 67°47' E 014°32'4 8.8
2017-Apr-29 08:30N 67°50' E 014°38'5 9.2
2017-Apr-29 08:00N 67°53' E 014°48'5 9.5
2017-Apr-29 07:30N 67°55' E 015°00'5 9.1
2017-Apr-29 06:59N 67°54' E 015°13'4 8.5
2017-Apr-29 06:30N 67°57' E 015°20'4 6.9
2017-Apr-29 06:00N 68°01' E 015°20'0 0.0
2017-Apr-29 05:30N 68°01' E 015°20'0 0.0
2017-Apr-29 05:00N 68°01' E 015°20'0 0.5
2017-Apr-29 04:30N 68°01' E 015°21'1 2.4
2017-Apr-29 03:59N 68°01' E 015°17'1 1.7
2017-Apr-29 03:30N 68°02' E 015°16'1 1.5
2017-Apr-29 03:00N 68°02' E 015°15'1 2.0
2017-Apr-29 02:30N 68°03' E 015°14'2 3.0
2017-Apr-29 02:00N 68°05' E 015°12'2 3.2
2017-Apr-29 01:30N 68°06' E 015°09'2 4.1
2017-Apr-29 01:00N 68°08' E 015°06'2 4.2
2017-Apr-29 00:30N 68°09' E 015°03'2 4.7
2017-Apr-29 00:00N 68°11' E 014°59'4 7.4
2017-Apr-28 23:30N 68°15' E 014°57'5 9.3
2017-Apr-28 23:00N 68°19' E 014°59'5 9.2
2017-Apr-28 22:30N 68°23' E 015°05'5 9.3
2017-Apr-28 22:00N 68°27' E 015°12'4 8.6
2017-Apr-28 21:30N 68°32' E 015°09'5 9.0
2017-Apr-28 21:00N 68°36' E 015°15'5 9.4
2017-Apr-28 20:30N 68°38' E 015°26'2 4.0
2017-Apr-28 20:00N 68°39' E 015°31'0 0.0
2017-Apr-28 19:30N 68°39' E 015°31'0 0.0
2017-Apr-28 19:00N 68°39' E 015°31'0 0.0
2017-Apr-28 18:30N 68°39' E 015°31'1 1.8
2017-Apr-28 18:00N 68°38' E 015°29'4 9.0
2017-Apr-28 17:30N 68°42' E 015°26'5 9.6
2017-Apr-28 17:00N 68°47' E 015°25'5 9.1
2017-Apr-28 16:30N 68°52' E 015°25'4 7.4
2017-Apr-28 16:00N 68°54' E 015°18'0 0.3
2017-Apr-28 15:30N 68°54' E 015°17'0 0.0
2017-Apr-28 15:00N 68°54' E 015°17'0 0.0
2017-Apr-28 14:00N 68°54' E 015°17'0 0.0
2017-Apr-28 13:30N 68°54' E 015°17'0 0.0
2017-Apr-28 13:00N 68°54' E 015°17'3 5.6
2017-Apr-28 12:30N 68°53' E 015°24'3 6.3
2017-Apr-28 12:00N 68°54' E 015°33'5 8.8
2017-Apr-28 11:30N 68°58' E 015°38'4 8.3
2017-Apr-28 11:00N 68°59' E 015°49'4 8.9
2017-Apr-28 10:30N 68°58' E 016°01'5 9.4
2017-Apr-28 10:00N 68°56' E 016°14'5 9.4
2017-Apr-28 09:30N 68°53' E 016°24'5 9.3
2017-Apr-28 09:00N 68°52' E 016°36'4 8.9
2017-Apr-28 08:30N 68°52' E 016°49'4 9.2
2017-Apr-28 08:00N 68°53' E 017°01'4 8.8
2017-Apr-28 07:30N 68°49' E 017°09'5 9.2
2017-Apr-28 07:00N 68°45' E 017°15'2 3.5
2017-Apr-28 06:30N 68°44' E 017°18'0 0.8
2017-Apr-28 06:01N 68°44' E 017°18'5 9.6
2017-Apr-28 05:30N 68°48' E 017°10'5 9.7
2017-Apr-28 05:00N 68°53' E 017°06'5 9.6
2017-Apr-28 04:30N 68°57' E 017°09'510.5
2017-Apr-28 04:00N 69°02' E 017°18'510.4
2017-Apr-28 03:30N 69°06' E 017°27'510.3
2017-Apr-28 03:00N 69°08' E 017°40'510.4
2017-Apr-28 02:30N 69°10' E 017°53'4 7.3
2017-Apr-28 02:00N 69°13' E 017°58'5 9.8
2017-Apr-28 01:30N 69°18' E 017°58'5 9.5
2017-Apr-28 01:00N 69°22' E 018°06'5 9.9
2017-Apr-28 00:30N 69°27' E 018°07'5 9.1
2017-Apr-28 00:00N 69°30' E 018°17'510.0
2017-Apr-27 23:30N 69°32' E 018°30'5 9.2
2017-Apr-27 23:00N 69°33' E 018°43'4 7.1
2017-Apr-27 22:30N 69°35' E 018°51'5 9.2
2017-Apr-27 22:00N 69°39' E 018°59'5 9.1
2017-Apr-27 21:30N 69°43' E 019°04'5 9.0
2017-Apr-27 21:00N 69°46' E 019°13'5 9.2
2017-Apr-27 20:30N 69°48' E 019°25'5 9.3
2017-Apr-27 20:00N 69°50' E 019°37'5 9.5
2017-Apr-27 19:30N 69°52' E 019°50'5 9.4
2017-Apr-27 19:00N 69°55' E 020°01'5 9.4
2017-Apr-27 18:30N 69°58' E 020°11'5 9.5
2017-Apr-27 17:59N 70°00' E 020°24'5 9.6
2017-Apr-27 17:29N 70°02' E 020°38'5 9.8
2017-Apr-27 17:00N 70°03' E 020°51'5 9.4
2017-Apr-27 16:30N 70°07' E 020°59'5 9.2
2017-Apr-27 16:00N 70°11' E 021°05'4 8.9
2017-Apr-27 15:30N 70°15' E 021°13'5 9.3
2017-Apr-27 15:00N 70°18' E 021°24'9 8.9
2017-Apr-27 14:00N 70°24' E 021°43'5 9.2
2017-Apr-27 13:30N 70°24' E 021°56'5 9.3
2017-Apr-27 12:59N 70°24' E 022°10'4 9.1
2017-Apr-27 12:30N 70°24' E 022°24'5 9.2
2017-Apr-27 12:00N 70°24' E 022°37'5 8.9
2017-Apr-27 11:29N 70°23' E 022°50'3 6.9
2017-Apr-27 11:00N 70°21' E 022°59'0 0.0
2017-Apr-27 10:30N 70°21' E 022°59'1 2.5
2017-Apr-27 09:59N 70°20' E 023°02'1 2.3
2017-Apr-27 09:29N 70°21' E 023°05'0 0.0
2017-Apr-27 09:00N 70°21' E 023°05'3 6.8
2017-Apr-27 08:30N 70°18' E 023°03'5 9.8
2017-Apr-27 08:00N 70°15' E 023°14'1 2.9
2017-Apr-27 07:30N 70°14' E 023°18'2 4.3
2017-Apr-27 07:00N 70°14' E 023°24'0 0.0
2017-Apr-27 06:30N 70°14' E 023°24'3 7.0
2017-Apr-27 06:00N 70°15' E 023°15'5 9.9
2017-Apr-27 05:29N 70°19' E 023°23'510.0
2017-Apr-27 04:59N 70°23' E 023°32'510.2
2017-Apr-27 04:30N 70°27' E 023°42'5 9.5
2017-Apr-27 04:00N 70°30' E 023°53'5 9.5
2017-Apr-27 03:29N 70°33' E 024°04'5 9.3
2017-Apr-27 03:00N 70°37' E 024°10'5 9.2
2017-Apr-27 02:30N 70°41' E 024°16'4 8.3
2017-Apr-27 02:00N 70°41' E 024°29'1 1.8
2017-Apr-27 01:29N 70°40' E 024°29'3 5.4
2017-Apr-27 00:59N 70°38' E 024°35'0 0.2
2017-Apr-27 00:30N 70°38' E 024°34'2 3.6
2017-Apr-27 00:00N 70°40' E 024°33'4 8.5
2017-Apr-26 23:30N 70°43' E 024°24'4 8.3
2017-Apr-26 23:00N 70°46' E 024°15'4 7.5
2017-Apr-26 22:30N 70°50' E 024°13'4 8.4
2017-Apr-26 22:00N 70°53' E 024°20'5 9.6
2017-Apr-26 21:30N 70°58' E 024°26'5 9.5
2017-Apr-26 21:00N 71°02' E 024°34'510.5
2017-Apr-26 20:30N 71°00' E 024°49'510.2
2017-Apr-26 20:00N 70°58' E 025°03'5 9.2
2017-Apr-26 19:30N 70°53' E 024°57'0 0.4
2017-Apr-26 18:38N 70°53' E 024°56'1 3.5
2017-Apr-26 18:29N 70°53' E 024°58'5 9.4
2017-Apr-26 18:00N 70°57' E 025°07'5 9.6
2017-Apr-26 17:30N 70°59' E 025°20'611.6
2017-Apr-26 17:00N 70°55' E 025°33'4 7.4
2017-Apr-26 16:30N 70°52' E 025°27'0 0.0
2017-Apr-26 16:00N 70°52' E 025°27'3 5.8
2017-Apr-26 15:30N 70°54' E 025°34'0 0.1
2017-Apr-26 15:00N 70°54' E 025°34'0 0.3
2017-Apr-26 14:30N 70°54' E 025°34'0 0.0
2017-Apr-26 13:30N 70°54' E 025°34'0 0.2
2017-Apr-26 13:00N 70°54' E 025°34'0 0.0
2017-Apr-26 12:30N 70°54' E 025°34'0 0.0
2017-Apr-26 12:00N 70°54' E 025°34'0 0.0
2017-Apr-26 11:30N 70°54' E 025°34'0 0.0
2017-Apr-26 11:00N 70°54' E 025°34'0 0.0
2017-Apr-26 10:29N 70°54' E 025°34'2 4.6
2017-Apr-26 10:00N 70°56' E 025°32'510.1
2017-Apr-26 09:30N 70°59' E 025°20'5 9.3
2017-Apr-26 09:00N 70°59' E 025°05'4 8.9
2017-Apr-26 08:29N 71°00' E 024°52'4 8.7
2017-Apr-26 08:00N 71°01' E 024°39'4 7.8
2017-Apr-26 07:30N 71°00' E 024°27'4 9.0
2017-Apr-26 07:00N 70°57' E 024°17'4 8.3
2017-Apr-26 06:30N 70°54' E 024°08'5 9.2
2017-Apr-26 06:00N 70°51' E 023°58'5 9.4
2017-Apr-26 05:30N 70°48' E 023°48'5 9.6
2017-Apr-26 05:00N 70°44' E 023°37'5 9.6
2017-Apr-26 04:30N 70°41' E 023°27'5 9.6
2017-Apr-26 04:00N 70°37' E 023°19'5 9.3
2017-Apr-26 03:30N 70°33' E 023°14'1 2.0
2017-Apr-26 02:59N 70°32' E 023°14'1 1.3
2017-Apr-26 02:30N 70°32' E 023°14'4 8.4
2017-Apr-26 02:00N 70°32' E 023°01'510.2
2017-Apr-26 01:30N 70°30' E 022°47'5 9.9
2017-Apr-26 01:00N 70°29' E 022°33'5 9.6
2017-Apr-26 00:30N 70°27' E 022°19'510.2
2017-Apr-26 00:00N 70°26' E 022°04'5 9.9
2017-Apr-25 23:30N 70°25' E 021°50'510.0
2017-Apr-25 23:00N 70°22' E 021°37'510.1
2017-Apr-25 22:30N 70°19' E 021°26'510.0
2017-Apr-25 22:00N 70°15' E 021°15'4 8.6
2017-Apr-25 21:30N 70°11' E 021°10'5 9.5
2017-Apr-25 21:00N 70°07' E 021°16'5 9.4
2017-Apr-25 20:29N 70°03' E 021°25'5 9.7
2017-Apr-25 20:00N 70°00' E 021°34'5 9.7
2017-Apr-25 19:29N 69°57' E 021°45'4 3.5
2017-Apr-25 18:26N 69°54' E 021°53'4 8.8
2017-Apr-25 18:00N 69°57' E 021°45'5 9.5
2017-Apr-25 17:29N 70°00' E 021°34'5 9.4
2017-Apr-25 17:00N 70°03' E 021°25'4 7.5
2017-Apr-25 16:30N 70°06' E 021°17'5 9.7
2017-Apr-25 16:00N 70°02' E 021°26'510.0
2017-Apr-25 15:30N 69°58' E 021°34'6 2.7
2017-Apr-25 13:26N 69°54' E 021°44'4 9.2
2017-Apr-25 13:00N 69°56' E 021°36'5 9.4
2017-Apr-25 12:30N 70°00' E 021°29'5 9.5
2017-Apr-25 11:59N 70°03' E 021°18'5 9.6
2017-Apr-25 11:30N 70°04' E 021°04'510.1
2017-Apr-25 11:00N 70°03' E 020°50'510.4
2017-Apr-25 10:30N 70°01' E 020°34'510.1
2017-Apr-25 10:00N 70°02' E 020°20'510.0
2017-Apr-25 09:30N 70°02' E 020°06'510.3
2017-Apr-25 09:00N 70°03' E 019°50'510.1
2017-Apr-25 08:30N 70°04' E 019°36'510.4
2017-Apr-25 08:00N 70°05' E 019°21'511.0
2017-Apr-25 07:30N 70°05' E 019°05'611.1
2017-Apr-25 07:00N 70°02' E 018°52'510.8
2017-Apr-25 06:30N 69°58' E 018°42'5 9.9
2017-Apr-25 06:00N 69°55' E 018°31'1 2.1
2017-Apr-25 05:30N 69°54' E 018°29'0 0.0
2017-Apr-25 05:00N 69°54' E 018°29'0 0.0
2017-Apr-25 04:30N 69°54' E 018°29'0 0.0
2017-Apr-25 04:00N 69°54' E 018°29'0 0.0
2017-Apr-25 03:30N 69°54' E 018°29'0 0.0
2017-Apr-25 03:00N 69°54' E 018°29'0 0.0
2017-Apr-25 02:30N 69°54' E 018°29'0 0.1
2017-Apr-25 02:00N 69°54' E 018°29'3 6.5
2017-Apr-25 01:30N 69°54' E 018°38'5 9.8
2017-Apr-25 00:59N 69°52' E 018°51'611.4
2017-Apr-25 00:30N 69°48' E 019°02'510.0
2017-Apr-25 00:00N 69°43' E 019°03'5 9.4
2017-Apr-24 23:30N 69°39' E 018°58'5 9.5
2017-Apr-24 23:00N 69°35' E 018°49'5 9.7
2017-Apr-24 22:30N 69°33' E 018°37'510.0
2017-Apr-24 22:00N 69°31' E 018°24'5 9.7
2017-Apr-24 21:30N 69°29' E 018°11'4 8.9
2017-Apr-24 21:00N 69°25' E 018°07'4 9.1
2017-Apr-24 20:30N 69°20' E 018°03'5 9.1
2017-Apr-24 20:00N 69°16' E 017°58'5 9.3
2017-Apr-24 19:30N 69°12' E 018°01'5 9.4
2017-Apr-24 19:00N 69°09' E 017°50'5 9.3
2017-Apr-24 18:30N 69°07' E 017°39'3 6.4
2017-Apr-24 18:00N 69°05' E 017°31'0 0.0
2017-Apr-24 17:30N 69°05' E 017°31'0 0.0
2017-Apr-24 17:00N 69°05' E 017°31'0 0.0
2017-Apr-24 16:30N 69°05' E 017°31'2 4.0
2017-Apr-24 16:00N 69°05' E 017°25'5 9.3
2017-Apr-24 15:30N 69°01' E 017°18'5 9.4
2017-Apr-24 15:00N 68°58' E 017°10'4 8.5
2017-Apr-24 14:30N 68°53' E 017°06'0 0.3
2017-Apr-24 13:30N 68°54' E 017°07'0 0.0
2017-Apr-24 13:00N 68°54' E 017°07'1 1.0
2017-Apr-24 12:30N 68°54' E 017°05'5 9.7
2017-Apr-24 12:00N 68°52' E 016°53'510.0
2017-Apr-24 11:30N 68°50' E 016°41'3 6.4
2017-Apr-24 11:00N 68°48' E 016°34'0 0.0
2017-Apr-24 10:29N 68°48' E 016°34'0 0.0
2017-Apr-24 10:00N 68°48' E 016°34'0 0.0
2017-Apr-24 09:30N 68°48' E 016°34'0 0.9
2017-Apr-24 09:00N 68°48' E 016°33'0 0.0
2017-Apr-24 08:30N 68°48' E 016°33'0 0.0
2017-Apr-24 08:01N 68°48' E 016°33'0 0.0
2017-Apr-24 07:30N 68°48' E 016°33'0 0.0
2017-Apr-24 07:00N 68°48' E 016°33'0 0.0
2017-Apr-24 06:30N 68°48' E 016°33'0 0.0
2017-Apr-24 06:00N 68°48' E 016°33'0 0.0
2017-Apr-24 05:30N 68°48' E 016°33'0 0.0
2017-Apr-24 05:00N 68°48' E 016°33'0 0.0
2017-Apr-24 04:30N 68°48' E 016°33'0 0.0
2017-Apr-24 04:00N 68°48' E 016°33'0 0.0
2017-Apr-24 03:30N 68°48' E 016°33'0 0.0
2017-Apr-24 03:00N 68°48' E 016°33'0 0.0
2017-Apr-24 02:30N 68°48' E 016°33'0 0.0
2017-Apr-24 02:00N 68°48' E 016°33'0 0.0
2017-Apr-24 01:29N 68°48' E 016°33'0 0.0
2017-Apr-24 01:00N 68°48' E 016°33'0 0.0
2017-Apr-24 00:30N 68°48' E 016°33'2 4.3
2017-Apr-24 00:00N 68°47' E 016°38'5 9.5
2017-Apr-23 23:30N 68°42' E 016°40'510.5
2017-Apr-23 23:00N 68°38' E 016°35'510.5
2017-Apr-23 22:30N 68°33' E 016°28'510.1
2017-Apr-23 22:00N 68°33' E 016°14'5 9.8
2017-Apr-23 21:30N 68°29' E 016°07'5 9.8
2017-Apr-23 21:00N 68°24' E 016°01'5 9.2
2017-Apr-23 20:30N 68°20' E 015°54'5 9.3
2017-Apr-23 20:00N 68°17' E 015°45'5 9.4
2017-Apr-23 19:30N 68°14' E 015°36'5 9.6
2017-Apr-23 19:00N 68°10' E 015°27'5 9.3
2017-Apr-23 18:30N 68°07' E 015°19'5 9.4
2017-Apr-23 18:00N 68°02' E 015°16'2 4.0
2017-Apr-23 17:30N 68°01' E 015°20'0 0.0
2017-Apr-23 17:00N 68°01' E 015°20'1 2.2
2017-Apr-23 16:30N 68°01' E 015°17'4 7.9
2017-Apr-23 16:00N 68°02' E 015°08'5 9.7
2017-Apr-23 15:30N 67°60' E 014°57'5 9.9
2017-Apr-23 15:00N 67°56' E 014°47'10 9.4
2017-Apr-23 14:00N 67°48' E 014°33'5 9.7
2017-Apr-23 13:30N 67°44' E 014°31'5 9.8
2017-Apr-23 13:00N 67°39' E 014°31'5 9.9
2017-Apr-23 12:30N 67°34' E 014°30'5 9.9
2017-Apr-23 12:01N 67°29' E 014°29'5 9.9
2017-Apr-23 11:30N 67°24' E 014°27'5 9.9
2017-Apr-23 11:00N 67°20' E 014°20'5 9.9
2017-Apr-23 10:30N 67°16' E 014°12'5 9.8
2017-Apr-23 10:00N 67°12' E 014°06'510.1
2017-Apr-23 09:30N 67°07' E 014°00'2 4.7
2017-Apr-23 09:00N 67°07' E 013°54'1 2.8
2017-Apr-23 08:30N 67°06' E 013°56'510.1
2017-Apr-23 08:00N 67°02' E 013°48'510.3
2017-Apr-23 07:30N 66°59' E 013°37'5 9.3
2017-Apr-23 07:00N 66°56' E 013°29'5 9.9
2017-Apr-23 06:30N 66°52' E 013°21'5 9.9
2017-Apr-23 06:00N 66°48' E 013°15'510.3
2017-Apr-23 05:30N 66°43' E 013°10'510.1
2017-Apr-23 05:00N 66°38' E 013°06'5 9.7
2017-Apr-23 04:30N 66°33' E 013°03'4 8.2
2017-Apr-23 04:00N 66°30' E 012°59'510.0
2017-Apr-23 03:30N 66°25' E 012°59'510.1
2017-Apr-23 03:00N 66°20' E 012°57'510.0
2017-Apr-23 02:30N 66°15' E 012°54'510.2
2017-Apr-23 02:00N 66°10' E 012°50'510.2
2017-Apr-23 01:30N 66°06' E 012°42'510.4
2017-Apr-23 01:00N 66°02' E 012°34'510.2
2017-Apr-23 00:30N 65°58' E 012°27'5 9.6
2017-Apr-23 00:00N 65°53' E 012°22'510.0
2017-Apr-22 23:30N 65°48' E 012°20'510.2
2017-Apr-22 23:00N 65°43' E 012°16'510.0
2017-Apr-22 22:30N 65°39' E 012°13'5 9.8
2017-Apr-22 22:00N 65°34' E 012°06'510.0
2017-Apr-22 21:30N 65°30' E 012°00'5 9.7
2017-Apr-22 21:00N 65°26' E 011°56'5 9.2
2017-Apr-22 20:30N 65°22' E 012°02'4 9.0
2017-Apr-22 20:00N 65°18' E 011°59'510.0
2017-Apr-22 19:30N 65°13' E 011°54'510.1
2017-Apr-22 19:00N 65°08' E 011°50'510.3
2017-Apr-22 18:30N 65°04' E 011°45'510.2
2017-Apr-22 18:00N 64°60' E 011°37'510.2
2017-Apr-22 17:30N 64°56' E 011°28'510.5
2017-Apr-22 17:00N 64°53' E 011°18'510.0
2017-Apr-22 16:30N 64°50' E 011°10'5 9.4
2017-Apr-22 16:00N 64°46' E 011°02'510.0
2017-Apr-22 15:30N 64°43' E 010°54'5 9.7
2017-Apr-22 15:00N 64°40' E 010°45'5 9.9
2017-Apr-22 14:30N 64°35' E 010°39'10 9.8
2017-Apr-22 13:30N 64°27' E 010°27'5 9.5
2017-Apr-22 13:00N 64°22' E 010°28'4 8.9
2017-Apr-22 12:30N 64°18' E 010°23'4 8.7
2017-Apr-22 12:00N 64°15' E 010°17'5 9.4
2017-Apr-22 11:30N 64°11' E 010°10'5 9.6
2017-Apr-22 11:00N 64°07' E 010°04'4 7.7
2017-Apr-22 10:29N 64°03' E 010°03'4 8.4
2017-Apr-22 10:00N 64°00' E 009°57'4 8.8
2017-Apr-22 09:30N 63°56' E 009°54'3 5.8
2017-Apr-22 09:00N 63°53' E 009°52'0 0.0
2017-Apr-22 08:29N 63°53' E 009°52'0 0.0
2017-Apr-22 08:00N 63°53' E 009°52'0 0.0
2017-Apr-22 07:30N 63°53' E 009°52'0 0.0
2017-Apr-22 06:59N 63°53' E 009°52'0 0.7
2017-Apr-22 06:30N 63°54' E 009°53'3 6.5
2017-Apr-22 06:00N 63°53' E 009°46'4 8.0
2017-Apr-22 05:30N 63°50' E 009°38'4 8.2
2017-Apr-22 05:00N 63°47' E 009°33'3 6.2
2017-Apr-22 04:30N 63°45' E 009°38'3 6.6
2017-Apr-22 04:01N 63°46' E 009°45'0 0.3
2017-Apr-22 03:30N 63°46' E 009°46'0 0.0
2017-Apr-22 03:00N 63°46' E 009°46'0 0.0
2017-Apr-22 02:30N 63°46' E 009°46'0 0.0
2017-Apr-22 02:00N 63°46' E 009°46'0 0.0
2017-Apr-22 01:30N 63°46' E 009°46'0 0.0
2017-Apr-22 01:00N 63°46' E 009°46'0 0.0
2017-Apr-22 00:30N 63°46' E 009°46'0 0.0
2017-Apr-22 00:00N 63°46' E 009°46'0 0.0
2017-Apr-21 23:30N 63°46' E 009°46'0 0.0
2017-Apr-21 23:00N 63°46' E 009°46'0 0.0
2017-Apr-21 22:30N 63°46' E 009°46'0 0.0
2017-Apr-21 22:00N 63°46' E 009°46'4 7.1
2017-Apr-21 21:30N 63°45' E 009°38'3 6.9
2017-Apr-21 21:00N 63°48' E 009°34'5 9.4
2017-Apr-21 20:30N 63°52' E 009°41'5 9.5
2017-Apr-21 20:00N 63°55' E 009°47'5 9.7
2017-Apr-21 19:30N 63°59' E 009°55'5 9.7
2017-Apr-21 19:00N 64°03' E 010°02'4 7.4
2017-Apr-21 18:29N 64°07' E 010°02'5 9.3
2017-Apr-21 18:00N 64°10' E 010°08'5 9.4
2017-Apr-21 17:30N 64°14' E 010°15'4 8.4
2017-Apr-21 17:00N 64°17' E 010°20'4 8.8
2017-Apr-21 16:30N 64°21' E 010°26'4 8.6
2017-Apr-21 16:00N 64°25' E 010°27'4 8.8
2017-Apr-21 15:30N 64°30' E 010°27'4 7.4
2017-Apr-21 15:00N 64°32' E 010°33'4 7.9
2017-Apr-21 14:30N 64°35' E 010°39'8 8.1
2017-Apr-21 13:30N 64°42' E 010°50'4 8.1
2017-Apr-21 13:00N 64°44' E 010°58'4 8.8
2017-Apr-21 12:30N 64°47' E 011°05'5 9.1
2017-Apr-21 12:00N 64°51' E 011°12'1 2.6
2017-Apr-21 11:30N 64°52' E 011°14'0 0.0
2017-Apr-21 11:00N 64°52' E 011°14'0 0.0
2017-Apr-21 10:30N 64°52' E 011°14'0 0.0
2017-Apr-21 10:00N 64°52' E 011°14'0 0.0
2017-Apr-21 09:30N 64°52' E 011°14'0 0.0
2017-Apr-21 09:00N 64°52' E 011°14'0 0.0
2017-Apr-21 08:30N 64°52' E 011°14'0 0.0
2017-Apr-21 08:00N 64°52' E 011°14'0 0.0
2017-Apr-21 07:30N 64°52' E 011°14'0 0.0
2017-Apr-21 07:00N 64°52' E 011°14'0 0.0
2017-Apr-21 06:30N 64°52' E 011°14'1 1.7
2017-Apr-21 06:00N 64°52' E 011°16'3 6.5
2017-Apr-21 05:30N 64°54' E 011°21'3 6.6
2017-Apr-21 05:00N 64°56' E 011°27'3 6.5
2017-Apr-21 04:30N 64°58' E 011°34'3 5.7
2017-Apr-21 04:00N 65°00' E 011°38'3 5.4
2017-Apr-21 03:30N 65°02' E 011°43'3 6.3
2017-Apr-21 03:00N 65°05' E 011°47'3 6.2
2017-Apr-21 02:30N 65°08' E 011°49'3 6.4
2017-Apr-21 02:00N 65°11' E 011°51'3 6.5
2017-Apr-21 01:30N 65°14' E 011°55'3 6.2
2017-Apr-21 01:00N 65°17' E 011°57'3 6.2
2017-Apr-21 00:30N 65°19' E 012°01'  

Dump ship's entire track history